Time;durP1;ratioP1;P1;durP2;ratioP2;P2;SDS_P1;SDS_P2;PMS_P1;PMS_P2;Temp;Humidity;BMP_temperature;BMP_pressure;BME280_temperature;BME280_humidity;BME280_pressure;Samples;Min_cycle;Max_cycle;Signal;HPM_P1;HPM_P2
2022/04/05 00:02:31;;;;;;;9.68;8.88;;;;;;;7.40;73.37;98598.44;2911353;80;21005;-82
2022/04/05 00:06:33;;;;;;;10.55;9.63;;;;;;;7.44;73.28;98594.51;2903855;79;21074;-82
2022/04/05 00:10:36;;;;;;;8.38;7.53;;;;;;;7.47;73.40;98608.80;2854832;80;21587;-81
2022/04/05 00:14:37;;;;;;;9.08;8.18;;;;;;;7.48;73.34;98587.97;2856964;81;21106;-81
2022/04/05 00:18:39;;;;;;;9.23;8.08;;;;;;;7.51;73.71;98606.66;2861671;80;21661;-82
2022/04/05 00:22:40;;;;;;;9.75;8.78;;;;;;;7.40;75.24;98581.23;2867261;80;21874;-82
2022/04/05 00:26:41;;;;;;;8.85;7.90;;;;;;;7.31;76.23;98612.55;2853049;81;21620;-82
2022/04/05 00:30:43;;;;;;;7.62;6.92;;;;;;;7.30;76.41;98618.31;2868178;80;21116;-82
2022/04/05 00:34:44;;;;;;;10.58;8.85;;;;;;;7.24;76.66;98602.53;2875875;80;21133;-81
2022/04/05 00:38:46;;;;;;;11.53;8.78;;;;;;;7.17;76.99;98605.43;2872823;80;21156;-82
2022/04/05 00:42:47;;;;;;;10.05;8.48;;;;;;;7.15;77.34;98603.42;2864652;81;21843;-82
2022/04/05 00:46:52;;;;;;;8.63;7.72;;;;;;;7.05;77.72;98592.03;2875987;80;21076;-82
2022/04/05 00:50:53;;;;;;;10.35;8.65;;;;;;;7.04;77.93;98595.19;2874241;80;21034;-82
2022/04/05 00:54:55;;;;;;;10.23;9.18;;;;;;;7.04;77.82;98581.12;2898141;80;21023;-82
2022/04/05 00:59:00;;;;;;;8.75;7.95;;;;;;;7.03;77.72;98589.55;2886058;80;21059;-82
2022/04/05 01:03:02;;;;;;;8.43;7.60;;;;;;;7.05;77.76;98582.78;2910776;80;21510;-82
2022/04/05 01:07:08;;;;;;;9.03;7.90;;;;;;;7.07;77.72;98578.18;2892085;80;21004;-82
2022/04/05 01:11:10;;;;;;;9.03;8.10;;;;;;;7.02;77.59;98576.47;2894988;80;21099;-82
2022/04/05 01:15:13;;;;;;;8.73;7.92;;;;;;;7.07;78.24;98599.33;2888777;79;21130;-82
2022/04/05 01:19:15;;;;;;;9.15;8.25;;;;;;;7.00;78.89;98586.70;2905860;80;21547;-82
2022/04/05 01:23:22;;;;;;;8.43;7.53;;;;;;;6.98;79.03;98569.34;2887463;79;21031;-82
2022/04/05 01:27:27;;;;;;;8.20;7.37;;;;;;;6.99;79.06;98577.10;2867520;80;21086;-82
2022/04/05 01:31:27;;;;;;;8.13;7.42;;;;;;;6.96;79.22;98577.88;2888979;80;21031;-81
2022/04/05 01:35:28;;;;;;;8.13;7.33;;;;;;;6.90;79.28;98571.38;2896866;80;21016;-81
2022/04/05 01:39:33;;;;;;;7.55;6.75;;;;;;;6.91;79.37;98574.84;2893959;80;21036;-82
2022/04/05 01:43:35;;;;;;;6.92;6.30;;;;;;;6.94;79.28;98574.07;2862475;80;21078;-81
2022/04/05 01:47:38;;;;;;;8.60;7.65;;;;;;;6.97;79.12;98583.03;2907209;80;21020;-82
2022/04/05 01:51:42;;;;;;;8.05;7.33;;;;;;;6.96;79.07;98585.33;2892882;80;21087;-81
2022/04/05 01:55:43;;;;;;;7.28;6.65;;;;;;;6.91;79.15;98547.93;2889931;80;21046;-82
2022/04/05 01:59:45;;;;;;;7.60;6.83;;;;;;;6.93;79.07;98566.27;2909676;80;21023;-81
2022/04/05 02:03:46;;;;;;;6.83;6.08;;;;;;;6.92;79.10;98569.42;2890061;80;21602;-82
2022/04/05 02:07:48;;;;;;;8.40;6.17;;;;;;;6.91;79.17;98575.69;2882005;80;21018;-82
2022/04/05 02:11:49;;;;;;;7.92;7.22;;;;;;;6.85;79.44;98558.59;2883713;80;21412;-82
2022/04/05 02:15:51;;;;;;;7.20;6.50;;;;;;;6.85;79.28;98561.23;2870684;80;21020;-81
2022/04/05 02:19:54;;;;;;;7.92;7.12;;;;;;;6.80;79.38;98559.52;2846505;80;21095;-82
2022/04/05 02:23:55;;;;;;;6.40;5.67;;;;;;;6.86;79.48;98549.68;2920999;80;21556;-82
2022/04/05 02:27:57;;;;;;;6.85;6.15;;;;;;;6.83;79.54;98552.61;2892347;80;21484;-82
2022/04/05 02:31:58;;;;;;;7.80;6.40;;;;;;;6.91;79.59;98557.19;2887880;79;21027;-82
2022/04/05 02:35:59;;;;;;;6.00;5.42;;;;;;;6.91;79.44;98555.86;2890221;80;21051;-82
2022/04/05 02:40:01;;;;;;;8.35;6.45;;;;;;;6.92;79.44;98550.92;2872328;80;21039;-82
2022/04/05 02:44:03;;;;;;;6.25;5.53;;;;;;;6.95;79.51;98553.73;2889035;79;21554;-82
2022/04/05 02:48:05;;;;;;;8.23;7.10;;;;;;;6.92;79.50;98552.71;2885893;80;21008;-82
2022/04/05 02:52:07;;;;;;;6.97;6.37;;;;;;;6.93;79.57;98535.88;2870694;80;21071;-81
2022/04/05 02:56:09;;;;;;;8.23;7.53;;;;;;;7.00;79.64;98561.59;2843915;80;21008;-83
2022/04/05 03:00:15;;;;;;;6.00;5.42;;;;;;;6.96;79.47;98550.96;2891611;80;21173;-83
2022/04/05 03:04:18;;;;;;;6.83;6.15;;;;;;;6.94;79.65;98563.50;2834749;81;21562;-85
2022/04/05 03:08:19;;;;;;;5.70;5.20;;;;;;;6.89;79.79;98548.56;2776170;84;21076;-82
2022/04/05 03:12:21;;;;;;;5.78;5.30;;;;;;;6.88;80.15;98558.80;2788910;84;21048;-82
2022/04/05 03:16:22;;;;;;;5.70;5.30;;;;;;;6.90;80.27;98556.84;2782494;83;21087;-82
2022/04/05 03:20:24;;;;;;;4.28;3.98;;;;;;;6.84;80.57;98560.04;2780694;83;21048;-81
2022/04/05 03:24:25;;;;;;;5.30;4.80;;;;;;;6.75;80.84;98560.92;2777130;83;21178;-83
2022/04/05 03:28:27;;;;;;;4.67;4.05;;;;;;;6.76;81.29;98564.72;2758869;84;21048;-83
2022/04/05 03:32:28;;;;;;;5.95;4.90;;;;;;;6.67;81.67;98574.84;2770625;83;21047;-82
2022/04/05 03:36:30;;;;;;;6.35;5.72;;;;;;;6.60;82.01;98549.47;2851572;80;21091;-82
2022/04/05 03:40:32;;;;;;;4.92;4.42;;;;;;;6.59;82.37;98557.06;2870378;80;21039;-82
2022/04/05 03:44:33;;;;;;;4.20;3.67;;;;;;;6.55;82.82;98553.86;2864074;81;21035;-82
2022/04/05 03:48:35;;;;;;;5.37;4.87;;;;;;;6.51;83.35;98556.95;2872767;81;21007;-82
2022/04/05 03:52:36;;;;;;;4.58;4.28;;;;;;;6.47;83.71;98556.39;2858891;80;21541;-82
2022/04/05 03:56:37;;;;;;;4.97;4.47;;;;;;;6.40;84.41;98561.41;2872947;81;21034;-82
2022/04/05 04:00:39;;;;;;;5.08;4.55;;;;;;;6.39;85.08;98557.09;2880421;80;21023;-83
2022/04/05 04:04:41;;;;;;;4.95;4.35;;;;;;;6.36;85.83;98561.82;2893387;79;21072;-86
2022/04/05 04:08:42;;;;;;;4.17;3.70;;;;;;;6.34;86.13;98576.97;2879500;80;21091;-86
2022/04/05 04:12:44;;;;;;;4.70;3.77;;;;;;;6.33;85.83;98572.20;2883012;79;21024;-84
2022/04/05 04:16:46;;;;;;;5.20;4.75;;;;;;;6.26;85.97;98551.27;2849893;79;21047;-84
2022/04/05 04:20:48;;;;;;;11.43;5.20;;;;;;;6.31;86.29;98580.75;2794080;82;21039;-84
2022/04/05 04:24:50;;;;;;;5.60;5.10;;;;;;;6.22;86.53;98559.13;2833903;82;21102;-85
2022/04/05 04:28:57;;;;;;;4.87;4.45;;;;;;;6.24;87.18;98576.98;2825944;82;21558;-84
2022/04/05 04:32:58;;;;;;;6.05;4.90;;;;;;;6.24;87.41;98577.83;2837530;81;20996;-84
2022/04/05 04:36:59;;;;;;;4.87;4.35;;;;;;;6.22;87.42;98584.22;2814546;82;21007;-84
2022/04/05 04:41:01;;;;;;;6.03;4.62;;;;;;;6.23;87.64;98592.02;2827109;82;21099;-86
2022/04/05 04:45:03;;;;;;;5.62;5.10;;;;;;;6.20;88.02;98595.41;2819629;83;21583;-85
2022/04/05 04:49:05;;;;;;;5.72;5.22;;;;;;;6.21;87.94;98587.36;2824038;82;21062;-85
2022/04/05 04:53:07;;;;;;;4.35;3.72;;;;;;;6.22;88.17;98598.27;2817946;83;21469;-85
2022/04/05 04:57:08;;;;;;;5.65;5.15;;;;;;;6.22;88.77;98601.38;2801651;82;21118;-85
2022/04/05 05:01:10;;;;;;;5.50;4.72;;;;;;;6.25;88.52;98603.27;2818089;82;21914;-85
2022/04/05 05:05:12;;;;;;;4.90;3.98;;;;;;;6.20;88.75;98610.77;2816181;81;21110;-85
2022/04/05 05:09:13;;;;;;;5.17;4.58;;;;;;;6.24;89.08;98603.39;2801119;82;21173;-85
2022/04/05 05:13:17;;;;;;;4.33;3.92;;;;;;;6.22;88.97;98610.62;2806534;82;21673;-86
2022/04/05 05:17:18;;;;;;;4.25;3.85;;;;;;;6.26;89.03;98609.36;2773101;83;21586;-85
2022/04/05 05:21:19;;;;;;;4.33;3.92;;;;;;;6.26;89.34;98612.00;2784450;83;21051;-85
2022/04/05 05:25:21;;;;;;;5.00;4.40;;;;;;;6.26;89.19;98608.05;2825605;82;21079;-85
2022/04/05 05:29:22;;;;;;;4.03;3.60;;;;;;;6.25;89.32;98621.75;2804331;83;21027;-85
2022/04/05 05:33:24;;;;;;;5.15;4.67;;;;;;;6.28;89.23;98625.42;2779866;83;21528;-85
2022/04/05 05:37:25;;;;;;;4.70;4.25;;;;;;;6.34;89.21;98624.52;2816729;82;21036;-86
2022/04/05 05:41:27;;;;;;;4.45;4.05;;;;;;;6.32;89.02;98629.95;2794119;83;21028;-86
2022/04/05 05:45:32;;;;;;;4.37;3.98;;;;;;;6.39;89.58;98638.97;2819315;81;21185;-85
2022/04/05 05:49:33;;;;;;;4.70;4.12;;;;;;;6.35;89.19;98652.11;2762161;83;21499;-84
2022/04/05 05:53:35;;;;;;;4.28;3.65;;;;;;;6.43;89.11;98641.67;2770185;84;21039;-86
2022/04/05 05:57:37;;;;;;;4.30;3.95;;;;;;;6.53;88.78;98650.92;2791814;83;20964;-86
2022/04/05 06:01:39;;;;;;;3.52;3.17;;;;;;;6.52;88.27;98657.68;2800623;82;21504;-85
2022/04/05 06:05:40;;;;;;;5.70;3.95;;;;;;;6.55;88.00;98648.15;2800923;83;20968;-85
2022/04/05 06:09:42;;;;;;;4.87;4.47;;;;;;;6.67;88.22;98672.11;2785421;83;21036;-86
2022/04/05 06:13:43;;;;;;;4.47;4.08;;;;;;;6.75;88.26;98678.52;2789582;83;21045;-86
2022/04/05 06:17:47;;;;;;;6.05;3.47;;;;;;;6.75;88.46;98674.55;2812084;83;21039;-85
2022/04/05 06:21:48;;;;;;;4.25;3.85;;;;;;;6.75;88.26;98665.30;2825762;81;21075;-85
2022/04/05 06:25:50;;;;;;;4.28;3.60;;;;;;;6.82;88.28;98682.25;2815133;83;21045;-85
2022/04/05 06:29:52;;;;;;;3.87;2.90;;;;;;;6.82;87.96;98686.22;2817025;83;21585;-85
2022/04/05 06:33:53;;;;;;;5.40;3.55;;;;;;;6.82;88.44;98681.78;2808883;82;21469;-86
2022/04/05 06:37:55;;;;;;;3.40;2.72;;;;;;;6.83;87.94;98694.02;2820435;83;21062;-85
2022/04/05 06:41:56;;;;;;;3.83;3.12;;;;;;;6.76;87.75;98697.36;2816607;82;21023;-84
2022/04/05 06:45:57;;;;;;;4.20;3.77;;;;;;;6.89;88.25;98701.88;2799597;82;21013;-85
2022/04/05 06:49:59;;;;;;;4.20;3.33;;;;;;;6.93;88.30;98700.61;2782212;83;20996;-86
2022/04/05 06:54:01;;;;;;;5.03;4.50;;;;;;;6.99;88.34;98698.72;2802331;81;21511;-85
2022/04/05 06:58:03;;;;;;;3.30;3.00;;;;;;;7.09;88.33;98706.63;2806813;83;21003;-85
2022/04/05 07:02:05;;;;;;;6.12;3.55;;;;;;;7.02;86.23;98692.32;2784916;83;21038;-86
2022/04/05 07:06:07;;;;;;;3.27;2.75;;;;;;;7.07;86.33;98714.34;2798953;82;21055;-85
2022/04/05 07:10:12;;;;;;;4.28;3.72;;;;;;;7.13;87.30;98716.44;2796091;82;21059;-85
2022/04/05 07:14:13;;;;;;;4.17;3.47;;;;;;;7.05;86.80;98732.16;2798067;82;21623;-85
2022/04/05 07:18:15;;;;;;;3.83;2.90;;;;;;;7.00;86.83;98731.29;2787154;83;21031;-85
2022/04/05 07:22:17;;;;;;;4.12;3.70;;;;;;;6.98;87.17;98743.81;2791103;83;21071;-86
2022/04/05 07:26:21;;;;;;;5.22;4.72;;;;;;;6.90;87.79;98748.48;2811065;82;21008;-85
2022/04/05 07:30:21;;;;;;;3.58;3.27;;;;;;;6.81;89.97;98756.76;2787441;83;21051;-85
2022/04/05 07:34:23;;;;;;;3.72;3.33;;;;;;;6.78;89.28;98782.63;2807031;81;21103;-85
2022/04/05 07:38:24;;;;;;;4.37;3.80;;;;;;;6.67;89.98;98756.66;2812238;81;21059;-86
2022/04/05 07:42:27;;;;;;;5.83;3.72;;;;;;;6.62;90.53;98776.06;2791795;83;21095;-85
2022/04/05 07:46:28;;;;;;;6.28;3.72;;;;;;;6.54;91.75;98764.05;2796479;82;21689;-86
2022/04/05 07:50:30;;;;;;;6.00;4.55;;;;;;;6.52;91.88;98758.06;2809891;83;21146;-86
2022/04/05 07:54:32;;;;;;;5.25;4.75;;;;;;;6.52;92.74;98774.73;2830093;81;21167;-85
2022/04/05 07:58:33;;;;;;;5.10;4.40;;;;;;;6.54;93.55;98774.61;2810290;82;21718;-85
2022/04/05 08:02:34;;;;;;;4.08;3.77;;;;;;;6.71;94.93;98791.11;2806014;82;21114;-85
2022/04/05 08:06:36;;;;;;;6.45;4.08;;;;;;;6.77;92.92;98783.59;2820250;83;21098;-85
2022/04/05 08:10:37;;;;;;;4.35;3.95;;;;;;;6.93;93.97;98797.10;2815744;83;21142;-85
2022/04/05 08:14:39;;;;;;;6.12;4.60;;;;;;;7.08;93.85;98810.73;2787257;82;21658;-85
2022/04/05 08:18:40;;;;;;;5.70;5.05;;;;;;;7.08;93.86;98805.44;2795575;82;21750;-85
2022/04/05 08:22:42;;;;;;;5.83;4.92;;;;;;;7.02;93.34;98815.27;2814386;83;21769;-84
2022/04/05 08:26:44;;;;;;;5.08;4.58;;;;;;;7.08;95.34;98818.66;2788176;82;21078;-86
2022/04/05 08:30:46;;;;;;;6.35;5.20;;;;;;;7.01;94.80;98822.84;2807540;83;21051;-85
2022/04/05 08:34:47;;;;;;;6.33;5.72;;;;;;;6.95;94.30;98853.78;2816628;82;21106;-85
2022/04/05 08:38:49;;;;;;;2.72;2.42;;;;;;;6.73;95.76;98871.56;2812595;83;21048;-86
2022/04/05 08:42:54;;;;;;;3.22;2.00;;;;;;;6.64;94.92;98871.06;2787391;83;21026;-86
2022/04/05 08:46:56;;;;;;;4.58;2.45;;;;;;;6.69;96.47;98863.09;2827769;83;21072;-85
2022/04/05 08:50:58;;;;;;;2.95;1.85;;;;;;;6.83;97.02;98852.61;2809551;83;21038;-85
2022/04/05 08:55:00;;;;;;;2.35;2.08;;;;;;;6.97;94.42;98851.36;2765786;84;21047;-85
2022/04/05 08:59:02;;;;;;;1.45;1.32;;;;;;;7.14;93.88;98857.76;2792411;82;21500;-86
2022/04/05 09:03:05;;;;;;;1.95;1.32;;;;;;;7.23;92.80;98869.31;2769893;83;21117;-86
2022/04/05 09:07:24;;;;;;;1.52;0.98;;;;;;;7.22;89.89;98863.68;2832566;82;21076;-86
2022/04/05 09:11:29;;;;;;;3.72;1.30;;;;;;;7.10;88.88;98869.59;2819747;82;21036;-85
2022/04/05 09:15:34;;;;;;;0.88;0.70;;;;;;;7.16;88.81;98869.53;2827922;82;20968;-85
2022/04/05 09:19:45;;;;;;;5.10;1.30;;;;;;;7.17;87.18;98869.88;2831491;81;20993;-86
2022/04/05 09:23:48;;;;;;;2.25;1.10;;;;;;;7.25;87.45;98867.36;2766540;84;21088;-86
2022/04/05 09:27:55;;;;;;;1.85;0.98;;;;;;;7.34;86.28;98875.45;2785392;83;21002;-86
2022/04/05 09:31:57;;;;;;;7.20;1.02;;;;;;;7.43;87.30;98875.45;2810396;82;21055;-85
2022/04/05 09:36:14;;;;;;;2.65;1.40;;;;;;;7.49;85.88;98883.33;2782150;83;21052;-86
2022/04/05 09:40:23;;;;;;;2.05;1.15;;;;;;;7.58;86.48;98889.08;2793744;82;21027;-85
2022/04/05 09:44:29;;;;;;;1.67;0.85;;;;;;;7.63;85.39;98890.45;2772776;83;21116;-86
2022/04/05 09:48:36;;;;;;;3.20;1.43;;;;;;;7.62;85.47;98898.91;2766549;83;21048;-86
2022/04/05 09:52:37;;;;;;;5.12;1.67;;;;;;;7.75;85.49;98882.72;2812138;82;20991;-85
2022/04/05 09:56:39;;;;;;;2.90;1.17;;;;;;;7.85;83.55;98890.14;2792635;83;21027;-85
2022/04/05 10:00:41;;;;;;;1.37;1.20;;;;;;;7.97;82.48;98897.93;2803614;83;20968;-86
2022/04/05 10:05:05;;;;;;;4.10;1.67;;;;;;;7.96;82.47;98902.87;2785012;83;21044;-86
2022/04/05 10:09:07;;;;;;;3.15;1.57;;;;;;;8.12;82.98;98887.23;2817771;82;21014;-85
2022/04/05 10:13:09;;;;;;;1.52;1.02;;;;;;;8.44;84.79;98894.42;2832478;81;21006;-86
2022/04/05 10:17:13;;;;;;;2.77;1.35;;;;;;;8.56;80.42;98905.70;2794064;81;21079;-85
2022/04/05 10:21:16;;;;;;;9.90;2.47;;;;;;;8.62;79.53;98897.66;2803455;82;20966;-86
2022/04/05 10:25:18;;;;;;;4.40;1.82;;;;;;;8.70;80.29;98903.89;2834193;82;21544;-86
2022/04/05 10:29:20;;;;;;;2.62;1.90;;;;;;;8.98;80.15;98905.19;2810085;82;21040;-86
2022/04/05 10:33:26;;;;;;;4.10;1.72;;;;;;;9.09;79.50;98895.36;2815658;82;22653;-86
2022/04/05 10:37:36;;;;;;;6.37;2.30;;;;;;;9.14;79.01;98893.08;2857850;81;21010;-84
2022/04/05 10:41:38;;;;;;;2.02;1.70;;;;;;;9.08;78.68;98915.73;2828806;82;21519;-86
2022/04/05 10:45:43;;;;;;;6.97;3.22;;;;;;;9.16;79.46;98907.02;2846332;82;21032;-86
2022/04/05 10:49:51;;;;;;;4.57;3.80;;;;;;;9.23;79.38;98908.08;2794168;82;21017;-86
2022/04/05 10:58:12;;;;;;;3.52;3.22;;;;;;;9.38;80.07;98916.37;2774931;82;21071;-86
2022/04/05 11:02:44;;;;;;;3.92;3.25;;;;;;;9.35;77.13;98910.52;2836878;82;21575;-85
2022/04/05 11:07:09;;;;;;;9.80;3.50;;;;;;;9.25;77.18;98921.20;2781016;83;21051;-86
2022/04/05 11:11:11;;;;;;;5.37;2.95;;;;;;;9.14;74.95;98918.28;2783967;84;21044;-86
2022/04/05 11:15:15;;;;;;;5.67;2.87;;;;;;;9.20;74.39;98917.67;2771206;83;21741;-86
2022/04/05 11:19:16;;;;;;;3.65;1.72;;;;;;;9.41;76.53;98928.48;2789240;83;21035;-86
2022/04/05 11:23:19;;;;;;;3.92;2.10;;;;;;;9.41;74.55;98917.86;2795217;83;21083;-85
2022/04/05 11:27:42;;;;;;;2.33;1.87;;;;;;;9.23;73.01;98921.34;2762406;83;21190;-86
2022/04/05 11:31:41;;;;;;;3.30;2.70;;;;;;;9.31;74.43;98917.94;2817724;83;21159;-85
2022/04/05 11:35:49;;;;;;;2.90;1.95;;;;;;;9.40;74.95;98926.81;2810567;83;21517;-86
2022/04/05 11:39:51;;;;;;;2.83;1.95;;;;;;;9.77;75.44;98933.77;2804103;82;21591;-86
2022/04/05 11:43:59;;;;;;;2.87;2.02;;;;;;;9.83;72.03;98930.52;2787579;82;21709;-86
2022/04/05 11:48:01;;;;;;;3.62;3.15;;;;;;;9.88;71.68;98927.88;2796535;83;21026;-86
2022/04/05 11:52:03;;;;;;;3.70;2.37;;;;;;;10.09;72.58;98920.88;2767741;83;21046;-86
2022/04/05 11:56:17;;;;;;;2.55;1.75;;;;;;;9.88;72.90;98938.51;2780353;83;21047;-86
2022/04/05 12:00:19;;;;;;;2.35;1.95;;;;;;;9.84;72.75;98946.80;2789639;83;21047;-86
2022/04/05 12:04:22;;;;;;;4.72;2.55;;;;;;;9.69;72.18;98940.35;2790871;83;21039;-85
2022/04/05 12:08:24;;;;;;;4.50;1.90;;;;;;;9.74;74.10;98943.38;2794368;82;21044;-86
2022/04/05 12:12:26;;;;;;;6.75;2.75;;;;;;;9.80;74.63;98945.92;2790493;82;21175;-84
2022/04/05 12:16:51;;;;;;;2.58;2.37;;;;;;;9.77;72.86;98956.34;2795472;83;21030;-86
2022/04/05 12:21:05;;;;;;;3.60;2.72;;;;;;;9.96;74.75;98964.64;2796909;83;21016;-85
2022/04/05 12:25:09;;;;;;;4.17;2.42;;;;;;;9.95;73.94;98954.16;2808006;82;21009;-86
2022/04/05 12:29:10;;;;;;;3.80;2.12;;;;;;;9.85;74.03;98949.78;2808967;83;21026;-85
2022/04/05 12:33:12;;;;;;;4.78;3.10;;;;;;;9.85;74.33;98957.75;2763315;83;21087;-85
2022/04/05 12:37:14;;;;;;;4.62;2.05;;;;;;;9.75;73.79;98951.68;2785248;83;21030;-86
2022/04/05 12:41:17;;;;;;;3.20;1.80;;;;;;;9.67;74.50;98959.08;2790761;83;20972;-86
2022/04/05 12:45:29;;;;;;;3.92;2.15;;;;;;;9.65;74.53;98962.89;2809226;82;21543;-86
2022/04/05 12:49:38;;;;;;;3.08;2.75;;;;;;;9.69;73.03;98960.27;2834476;81;21027;-86
2022/04/05 12:53:40;;;;;;;3.75;2.42;;;;;;;9.70;74.46;98959.28;2813037;82;21025;-85
2022/04/05 12:57:51;;;;;;;6.75;3.00;;;;;;;9.62;73.67;98964.50;2815424;82;21070;-85
2022/04/05 13:01:56;;;;;;;4.20;3.25;;;;;;;9.55;74.53;98958.48;2819179;82;21080;-86
2022/04/05 13:10:18;;;;;;;3.60;2.45;;;;;;;9.68;73.44;98953.29;2836702;82;21545;-86
2022/04/05 13:14:20;;;;;;;3.90;2.70;;;;;;;9.76;73.14;98957.33;2850578;82;21079;-85
2022/04/05 13:18:35;;;;;;;4.62;3.02;;;;;;;9.85;73.77;98956.42;2839012;82;21040;-85
2022/04/05 13:22:37;;;;;;;4.20;2.60;;;;;;;10.04;73.84;98958.55;2832495;82;21008;-86
2022/04/05 13:26:43;;;;;;;7.25;2.85;;;;;;;10.24;73.53;98947.73;2836647;81;20972;-90
2022/04/05 13:30:47;;;;;;;4.62;2.27;;;;;;;10.43;72.14;98944.03;2799896;83;21091;-88
2022/04/05 13:34:49;;;;;;;4.85;2.20;;;;;;;10.52;69.76;98942.25;2793038;82;21741;-89
2022/04/05 13:38:51;;;;;;;3.37;2.40;;;;;;;10.54;69.35;98944.25;2820133;83;21027;-92
2022/04/05 13:42:53;;;;;;;5.05;1.95;;;;;;;10.41;68.96;98949.49;2766930;83;21003;-88
2022/04/05 13:46:56;;;;;;;1.87;1.47;;;;;;;10.32;68.96;98938.94;2765644;83;21077;-83
2022/04/05 13:50:58;;;;;;;5.90;2.67;;;;;;;10.31;69.15;98953.22;2781186;84;20997;-89
2022/04/05 13:54:59;;;;;;;3.08;2.70;;;;;;;10.18;69.70;98957.63;2838851;81;21019;-90
2022/04/05 13:59:02;;;;;;;7.40;2.33;;;;;;;10.22;71.21;98976.25;2807745;83;21004;-88
2022/04/05 14:03:04;;;;;;;2.98;2.33;;;;;;;10.15;71.90;98956.95;2794836;82;21075;-88
2022/04/05 14:07:07;;;;;;;7.12;2.60;;;;;;;10.11;72.17;98976.02;2809135;82;21746;-85
2022/04/05 14:11:08;;;;;;;8.00;2.85;;;;;;;10.08;73.12;98966.55;2807694;83;21052;-87
2022/04/05 14:15:10;;;;;;;7.72;2.95;;;;;;;10.05;73.62;98974.84;2793944;83;21073;-88
2022/04/05 14:19:12;;;;;;;4.15;2.60;;;;;;;10.00;73.36;98986.40;2801568;83;21043;-88
2022/04/05 14:23:13;;;;;;;2.50;2.30;;;;;;;10.00;73.19;98980.61;2783650;82;21612;-86
2022/04/05 14:27:14;;;;;;;4.50;3.20;;;;;;;9.79;74.00;98985.41;2769361;83;21095;-86
2022/04/05 14:31:16;;;;;;;5.40;2.92;;;;;;;9.71;75.08;98987.50;2798104;82;21099;-87
2022/04/05 14:35:17;;;;;;;7.28;4.35;;;;;;;9.73;74.84;98972.24;2834795;83;21008;-87
2022/04/05 14:39:19;;;;;;;5.30;4.05;;;;;;;9.84;75.61;98968.04;2811899;83;21056;-89
2022/04/05 14:43:21;;;;;;;7.65;4.25;;;;;;;9.93;75.61;98970.75;2830031;82;21634;-88
2022/04/05 14:47:22;;;;;;;6.42;3.98;;;;;;;10.07;74.20;98963.55;2799092;82;21097;-87
2022/04/05 14:51:24;;;;;;;11.20;4.03;;;;;;;10.06;74.32;98941.97;2780793;82;21101;-88
2022/04/05 14:55:26;;;;;;;5.85;3.83;;;;;;;10.05;74.57;98952.25;2773584;83;21050;-88
2022/04/05 14:59:28;;;;;;;5.85;3.75;;;;;;;10.01;74.44;98953.53;2797739;83;21068;-86
2022/04/05 15:03:31;;;;;;;6.03;3.65;;;;;;;10.00;75.09;98959.83;2820354;83;21044;-84
2022/04/05 15:07:32;;;;;;;4.92;3.45;;;;;;;10.03;75.53;98954.23;2784031;82;21032;-88
2022/04/05 15:11:34;;;;;;;7.22;4.87;;;;;;;9.93;75.13;98953.00;2793498;83;21034;-87
2022/04/05 15:15:35;;;;;;;7.20;4.15;;;;;;;9.89;75.48;98940.17;2812522;83;21534;-86
2022/04/05 15:19:37;;;;;;;5.22;3.77;;;;;;;9.84;76.89;98951.25;2808045;83;21025;-87
2022/04/05 15:23:38;;;;;;;7.85;4.03;;;;;;;9.77;77.46;98951.03;2775790;83;21078;-87
2022/04/05 15:27:41;;;;;;;6.75;4.80;;;;;;;9.76;78.28;98944.05;2789695;83;21025;-85
2022/04/05 15:31:43;;;;;;;6.22;5.62;;;;;;;9.85;79.56;98957.75;2818838;82;21081;-87
2022/04/05 15:35:44;;;;;;;5.37;4.62;;;;;;;9.89;78.87;98956.93;2786470;82;20976;-87
2022/04/05 15:39:46;;;;;;;6.05;5.42;;;;;;;9.94;79.94;98953.82;2811320;82;21109;-87
2022/04/05 15:43:48;;;;;;;6.15;5.45;;;;;;;9.91;80.21;98955.46;2831475;82;21052;-87
2022/04/05 15:47:50;;;;;;;9.18;6.08;;;;;;;9.83;81.52;98951.77;2762444;83;21080;-86
2022/04/05 15:51:51;;;;;;;5.42;4.28;;;;;;;9.79;81.39;98945.06;2792111;83;21086;-86
2022/04/05 15:55:53;;;;;;;6.47;5.47;;;;;;;9.81;83.05;98951.05;2782949;83;21028;-85
2022/04/05 15:59:54;;;;;;;5.30;4.60;;;;;;;9.78;83.74;98946.56;2776744;82;21099;-88
2022/04/05 16:03:56;;;;;;;7.03;4.45;;;;;;;9.77;84.62;98958.17;2793688;83;21068;-86
2022/04/05 16:07:57;;;;;;;6.15;4.58;;;;;;;9.74;84.64;98946.54;2809554;82;21101;-86
2022/04/05 16:11:59;;;;;;;6.15;5.00;;;;;;;9.78;85.82;98944.73;2805313;82;21032;-87
2022/04/05 16:16:00;;;;;;;5.62;4.53;;;;;;;9.85;86.59;98942.30;2820972;83;21030;-87
2022/04/05 16:20:01;;;;;;;4.12;3.83;;;;;;;9.85;86.89;98949.78;2779563;84;21040;-84
2022/04/05 16:24:03;;;;;;;4.67;4.05;;;;;;;9.86;86.90;98954.59;2815710;82;21005;-85
2022/04/05 16:28:06;;;;;;;7.65;4.53;;;;;;;9.92;86.98;98953.14;2831839;81;20999;-84
2022/04/05 16:32:08;;;;;;;6.08;5.33;;;;;;;9.98;87.04;98960.48;2828363;82;21425;-85
2022/04/05 16:36:13;;;;;;;10.72;5.65;;;;;;;9.99;86.92;98960.82;2838254;82;21030;-85
2022/04/05 16:40:15;;;;;;;8.30;5.20;;;;;;;9.98;86.47;98950.70;2828565;82;20964;-85
2022/04/05 16:44:17;;;;;;;7.47;5.17;;;;;;;9.97;86.57;98958.81;2858690;81;21032;-85
2022/04/05 16:48:18;;;;;;;7.08;5.47;;;;;;;9.93;86.58;98954.81;2835222;82;21487;-85
2022/04/05 16:52:20;;;;;;;9.25;6.20;;;;;;;9.92;86.67;98960.60;2808305;82;21035;-85
2022/04/05 16:56:23;;;;;;;9.95;5.83;;;;;;;9.85;86.68;98953.77;2829357;82;20968;-85
2022/04/05 17:00:24;;;;;;;7.00;5.53;;;;;;;9.79;87.54;98954.36;2834445;81;21027;-85
2022/04/05 17:04:26;;;;;;;9.20;6.30;;;;;;;9.79;87.98;98952.22;2829854;82;21529;-84
2022/04/05 17:08:28;;;;;;;10.80;6.78;;;;;;;9.74;88.21;98960.63;2819172;83;21526;-86
2022/04/05 17:12:29;;;;;;;10.53;7.25;;;;;;;9.75;88.24;98958.83;2808511;82;21056;-84
2022/04/05 17:16:32;;;;;;;7.58;5.28;;;;;;;9.77;88.38;98961.66;2815786;82;21078;-84
2022/04/05 17:20:34;;;;;;;13.35;6.72;;;;;;;9.67;89.29;98962.25;2816705;82;21030;-86
2022/04/05 17:24:38;;;;;;;7.42;6.10;;;;;;;9.58;89.86;98956.84;2804094;82;21059;-85
2022/04/05 17:28:38;;;;;;;11.53;7.45;;;;;;;9.49;90.44;98952.46;2817136;82;21038;-84
2022/04/05 17:32:41;;;;;;;10.98;7.17;;;;;;;9.50;90.40;98947.48;2814422;82;21031;-85
2022/04/05 17:36:43;;;;;;;7.00;6.12;;;;;;;9.63;90.00;98954.22;2817197;82;21098;-85
2022/04/05 17:40:44;;;;;;;6.87;5.95;;;;;;;9.66;90.16;98950.77;2838869;81;21712;-85
2022/04/05 17:44:46;;;;;;;10.03;7.45;;;;;;;9.70;90.26;98946.00;2824965;82;21102;-82
2022/04/05 18:12:10;;;;;;;52.78;39.53;;;;;;;9.80;90.99;98948.06;2669389;85;21102;-83
2022/04/05 18:16:12;;;;;;;54.08;41.35;;;;;;;9.80;90.99;98946.73;2680263;86;21547;-84
2022/04/05 18:20:13;;;;;;;42.33;34.88;;;;;;;9.83;91.25;98945.12;2680272;85;21065;-89
2022/04/05 18:24:15;;;;;;;31.52;26.62;;;;;;;9.81;91.48;98944.42;2702400;86;21570;-88
2022/04/05 18:28:16;;;;;;;39.15;31.48;;;;;;;9.77;91.05;98952.36;2751986;84;21043;-86
2022/04/05 18:37:09;;;;;;;38.95;27.32;;;;;;;9.58;92.07;98964.81;2749460;82;21201;-87
2022/04/05 18:41:11;;;;;;;83.45;66.25;;;;;;;9.70;92.33;98954.78;2734459;83;21143;-86
2022/04/05 18:45:17;;;;;;;43.05;34.27;;;;;;;9.69;91.61;98961.59;2742767;85;21147;-87
2022/04/05 18:49:16;;;;;;;32.95;28.17;;;;;;;9.69;91.71;98970.89;2718021;85;21601;-84
2022/04/05 18:53:18;;;;;;;44.27;28.07;;;;;;;9.70;91.47;98977.87;2731759;84;21090;-87
2022/04/05 18:57:19;;;;;;;49.25;28.47;;;;;;;9.68;91.35;98974.02;2734396;84;21474;-86
2022/04/05 19:01:21;;;;;;;34.08;21.62;;;;;;;9.75;90.70;98972.92;2709871;85;21010;-85
2022/04/05 19:05:23;;;;;;;36.58;22.62;;;;;;;9.82;90.81;98973.97;2708160;85;21054;-88
2022/04/05 19:09:24;;;;;;;46.55;34.25;;;;;;;9.96;90.38;98969.95;2731886;85;21071;-85
2022/04/05 19:13:26;;;;;;;52.13;34.18;;;;;;;9.94;90.01;98973.27;2728868;83;21075;-84
2022/04/05 19:17:27;;;;;;;48.42;36.88;;;;;;;9.92;90.14;98966.42;2739362;84;21485;-85
2022/04/05 19:44:36;;;;;;;21.90;14.30;;;;;;;9.02;95.51;98961.42;2856196;79;21124;-86
2022/04/05 19:48:39;;;;;;;34.00;25.95;;;;;;;8.90;96.79;98946.21;2878513;80;21027;-87
2022/04/05 19:52:40;;;;;;;20.88;15.78;;;;;;;8.91;96.58;98946.55;2860020;80;21018;-84
2022/04/05 19:56:42;;;;;;;23.15;18.42;;;;;;;8.95;96.67;98933.84;2862711;80;21050;-88
2022/04/05 20:00:44;;;;;;;21.87;15.68;;;;;;;8.99;95.80;98934.70;2897800;79;20996;-85
2022/04/05 20:04:46;;;;;;;25.32;16.23;;;;;;;9.02;95.72;98934.05;2895396;79;21086;-88
2022/04/05 20:08:47;;;;;;;17.10;13.38;;;;;;;9.10;95.27;98926.20;2878922;80;21686;-85
2022/04/05 20:12:50;;;;;;;18.10;13.58;;;;;;;9.19;94.56;98928.45;2881296;79;21082;-84